This is the latest recevied weather packets stored in our database for station/object W2CJS. If no packets are shown the sender has not sent any weather packets the latest 10 day(s).
| Time | Temp. | Humidity | Pressure | Rain* | Wind** | Luminosity | Snow |
|---|---|---|---|---|---|---|---|
| 1777459804 | 10° C | 71% | 1013 hPa | 0 mm | - | - | - |
| 1777458603 | 10° C | 71% | 1013.1 hPa | 0 mm | - | - | - |
| 1777457424 | 10° C | 71% | 1013.1 hPa | 0 mm | - | - | - |
| 1777456203 | 10° C | 71% | 1013 hPa | 0 mm | - | - | - |
| 1777455603 | 10° C | 70% | 1012.9 hPa | 0 mm | - | - | - |
| 1777453203 | 10° C | 74% | 1012.4 hPa | 0 mm | - | - | - |
| 1777451424 | 10° C | 72% | 1012.5 hPa | 0 mm | - | - | - |
| 1777441203 | 9.44° C | 70% | 1013.6 hPa | 0 mm | - | - | - |
| 1777439424 | 8.89° C | 72% | 1013.9 hPa | 0 mm | - | - | - |
| 1777434603 | 7.78° C | 70% | 1013.6 hPa | 0 mm | - | - | - |
| 1777434003 | 7.78° C | 69% | 1013.5 hPa | 0 mm | - | - | - |
| 1777432224 | 8.89° C | 67% | 1013.2 hPa | 0 mm | - | - | - |
| 1777426804 | 13.89° C | 47% | 1014 hPa | 0 mm | - | - | - |
| 1777425003 | 14.44° C | 44% | 1013.9 hPa | 0 mm | - | - | - |
| 1777419603 | 16.11° C | 42% | 1013.6 hPa | 0 mm | - | - | - |
| 1777417803 | 16.67° C | 41% | 1013.5 hPa | 0 mm | - | - | - |
| 1777410003 | 17.78° C | 40% | 1014.4 hPa | 0 mm | - | - | - |
| 1777401004 | 17.78° C | 37% | 1015.9 hPa | 0 mm | - | - | - |
| 1777398604 | 18.89° C | 33% | 1015.8 hPa | 0 mm | - | - | - |
| 1777396803 | 18.89° C | 35% | 1015.5 hPa | 0 mm | - | - | - |
| 1777394404 | 18.89° C | 37% | 1015.9 hPa | 0 mm | - | - | - |
| 1777390204 | 17.78° C | 38% | 1016.7 hPa | 0 mm | - | - | - |
| 1777389603 | 18.33° C | 38% | 1016.7 hPa | 0 mm | - | - | - |
| 1777387203 | 17.78° C | 38% | 1016.9 hPa | 0 mm | - | - | - |
| 1777385404 | 16.67° C | 40% | 1017.1 hPa | 0 mm | - | - | - |
* Rain latest hour (hover to see other rain measurements)
** Current wind speed in m/s (hover to see current wind gust speed)